Time;durP1;ratioP1;P1;durP2;ratioP2;P2;SDS_P1;SDS_P2;PMS_P1;PMS_P2;Temp;Humidity;BMP_temperature;BMP_pressure;BME280_temperature;BME280_humidity;BME280_pressure;Samples;Min_cycle;Max_cycle;Signal;HPM_P1;HPM_P2
2023/09/05 00:00:16;;;;;;;14.82;12.18;;;16.00;84.50;;;;;;4962066;28;20577;-82
2023/09/05 00:02:44;;;;;;;13.35;11.95;;;16.00;84.80;;;;;;4946615;28;20038;-83
2023/09/05 00:05:11;;;;;;;13.77;12.43;;;16.00;84.70;;;;;;4978218;28;20142;-81
2023/09/05 00:07:40;;;;;;;14.20;12.90;;;16.00;84.70;;;;;;4946189;28;20049;-81
2023/09/05 00:10:08;;;;;;;14.57;13.05;;;16.00;84.50;;;;;;4962170;28;20070;-82
2023/09/05 00:12:34;;;;;;;14.07;12.68;;;16.00;84.50;;;;;;4962558;28;20449;-82
2023/09/05 00:15:02;;;;;;;16.67;13.55;;;15.90;84.70;;;;;;4978224;28;20038;-81
2023/09/05 00:17:27;;;;;;;15.27;13.43;;;15.90;84.80;;;;;;4946262;28;20601;-81
2023/09/05 00:19:55;;;;;;;13.82;12.48;;;15.80;84.90;;;;;;4962346;28;20046;-81
2023/09/05 00:22:22;;;;;;;15.60;14.00;;;15.80;85.00;;;;;;4962345;28;20042;-81
2023/09/05 00:24:49;;;;;;;16.23;12.88;;;15.80;85.10;;;;;;4961800;28;20038;-81
2023/09/05 00:27:15;;;;;;;14.27;12.88;;;15.80;85.00;;;;;;4977466;28;20050;-81
2023/09/05 00:29:42;;;;;;;16.33;13.38;;;15.80;85.10;;;;;;4977829;28;20038;-81
2023/09/05 00:32:09;;;;;;;14.88;13.32;;;15.80;85.10;;;;;;4962252;28;20061;-82
2023/09/05 00:34:37;;;;;;;15.75;14.15;;;15.80;85.30;;;;;;4961947;28;20042;-82
2023/09/05 00:37:05;;;;;;;15.48;13.93;;;15.80;84.90;;;;;;4961626;28;20038;-82
2023/09/05 00:39:31;;;;;;;14.95;13.55;;;15.80;85.20;;;;;;4977658;28;20483;-81
2023/09/05 00:41:57;;;;;;;15.18;13.68;;;15.70;85.30;;;;;;4961452;28;20046;-81
2023/09/05 00:44:24;;;;;;;13.70;12.30;;;15.70;85.40;;;;;;4977462;28;20047;-81
2023/09/05 00:46:52;;;;;;;16.05;14.48;;;15.70;85.40;;;;;;4961304;28;20553;-81
2023/09/05 00:49:22;;;;;;;16.88;15.18;;;15.70;85.40;;;;;;4977455;28;20038;-81
2023/09/05 00:51:53;;;;;;;17.27;14.73;;;15.70;85.60;;;;;;4945750;28;20038;-81
2023/09/05 00:54:19;;;;;;;15.27;13.77;;;15.60;85.40;;;;;;4961662;28;20469;-81
2023/09/05 00:56:45;;;;;;;16.80;15.00;;;15.60;85.40;;;;;;4961257;28;20105;-82
2023/09/05 00:59:11;;;;;;;17.80;14.93;;;15.60;85.30;;;;;;4945250;28;20058;-81
2023/09/05 01:01:37;;;;;;;16.30;14.70;;;15.50;85.40;;;;;;4960850;28;20081;-81
2023/09/05 01:04:03;;;;;;;18.00;15.73;;;15.50;85.70;;;;;;4977139;28;20074;-81
2023/09/05 01:06:47;;;;;;;15.48;13.88;;;15.40;85.80;;;;;;4977475;28;20084;-81
2023/09/05 01:09:39;;;;;;;17.13;15.35;;;15.30;85.90;;;;;;4960968;28;20046;-81
2023/09/05 01:12:07;;;;;;;17.15;14.45;;;15.40;86.10;;;;;;4961064;28;20042;-82
2023/09/05 01:14:33;;;;;;;17.08;15.48;;;15.30;86.10;;;;;;4977001;28;20077;-82
2023/09/05 01:17:01;;;;;;;17.70;16.10;;;15.30;86.10;;;;;;4977032;28;20073;-82
2023/09/05 01:19:29;;;;;;;18.13;16.27;;;15.30;86.10;;;;;;4961277;28;20057;-81
2023/09/05 01:22:10;;;;;;;17.60;15.85;;;15.30;86.20;;;;;;4960950;28;20085;-81
2023/09/05 01:24:35;;;;;;;18.50;16.55;;;15.30;86.40;;;;;;4976734;28;20498;-81
2023/09/05 01:27:03;;;;;;;18.20;16.48;;;15.20;86.40;;;;;;4960790;28;20074;-81
2023/09/05 01:29:34;;;;;;;18.45;16.65;;;15.20;86.40;;;;;;4960574;28;20565;-82
2023/09/05 01:32:01;;;;;;;17.40;15.27;;;15.20;86.20;;;;;;4976836;28;20117;-82
2023/09/05 01:34:27;;;;;;;18.42;16.52;;;15.20;86.50;;;;;;4976953;28;20468;-81
2023/09/05 01:36:53;;;;;;;18.40;16.60;;;15.20;86.40;;;;;;4960648;28;20135;-81
2023/09/05 01:39:19;;;;;;;17.50;15.57;;;15.20;86.60;;;;;;4976749;28;20046;-82
2023/09/05 01:41:45;;;;;;;18.35;16.55;;;15.10;86.50;;;;;;4976799;28;20438;-81
2023/09/05 01:44:10;;;;;;;17.38;15.77;;;15.10;86.60;;;;;;4944348;28;20104;-82
2023/09/05 01:46:37;;;;;;;17.92;16.13;;;15.10;86.50;;;;;;4960604;28;20090;-82
2023/09/05 01:49:03;;;;;;;18.33;16.02;;;15.00;86.60;;;;;;4944835;28;20399;-81
2023/09/05 01:51:29;;;;;;;18.00;16.30;;;15.00;86.70;;;;;;4960500;28;20041;-82
2023/09/05 01:53:54;;;;;;;18.58;16.63;;;15.00;86.60;;;;;;4960565;28;20049;-82
2023/09/05 01:56:20;;;;;;;18.10;16.25;;;14.90;86.70;;;;;;4960490;28;20042;-81
2023/09/05 01:58:46;;;;;;;18.20;16.50;;;14.90;86.90;;;;;;4944184;28;20043;-82
2023/09/05 02:01:11;;;;;;;18.92;17.13;;;14.80;86.90;;;;;;4960401;28;20086;-81
2023/09/05 02:03:38;;;;;;;18.10;16.30;;;14.90;87.00;;;;;;4960178;28;20038;-81
2023/09/05 02:06:04;;;;;;;18.25;16.33;;;14.90;87.00;;;;;;4944713;28;20073;-81
2023/09/05 02:08:29;;;;;;;18.23;16.13;;;14.80;87.10;;;;;;4976595;28;20494;-82
2023/09/05 02:10:55;;;;;;;17.83;16.02;;;14.90;87.20;;;;;;4976584;28;20042;-81
2023/09/05 02:13:21;;;;;;;17.40;15.70;;;14.90;87.20;;;;;;4976524;28;20038;-82
2023/09/05 02:15:46;;;;;;;18.02;16.30;;;14.80;87.30;;;;;;4960037;28;20505;-82
2023/09/05 02:18:12;;;;;;;16.65;15.05;;;14.80;87.30;;;;;;4944235;28;20043;-82
2023/09/05 02:20:39;;;;;;;18.80;17.00;;;14.80;87.30;;;;;;4960086;28;20043;-81
2023/09/05 02:23:04;;;;;;;17.83;16.05;;;14.80;87.20;;;;;;4976378;28;20046;-81
2023/09/05 02:25:30;;;;;;;16.50;14.88;;;14.70;87.40;;;;;;4976333;28;20471;-81
2023/09/05 02:27:56;;;;;;;18.02;15.23;;;14.80;87.50;;;;;;4960327;28;20095;-81
2023/09/05 02:30:22;;;;;;;17.40;15.57;;;14.70;87.50;;;;;;4944089;28;20102;-82
2023/09/05 02:32:51;;;;;;;16.58;14.80;;;14.70;87.80;;;;;;4944179;28;20038;-81
2023/09/05 02:35:20;;;;;;;17.58;15.68;;;14.80;87.70;;;;;;4959903;28;20121;-82
2023/09/05 02:37:50;;;;;;;17.17;15.40;;;14.80;87.80;;;;;;4944404;28;20046;-81
2023/09/05 02:40:16;;;;;;;25.45;16.40;;;14.90;87.70;;;;;;4976080;28;20089;-81
2023/09/05 02:42:42;;;;;;;16.75;14.95;;;14.80;87.80;;;;;;4976242;28;20038;-81
2023/09/05 02:45:08;;;;;;;18.15;14.30;;;14.90;87.50;;;;;;4959590;28;20045;-82
2023/09/05 02:47:34;;;;;;;16.73;15.07;;;14.90;87.70;;;;;;4959702;28;20042;-82
2023/09/05 02:50:00;;;;;;;17.98;16.02;;;15.00;87.80;;;;;;4944217;28;20368;-82
2023/09/05 02:52:26;;;;;;;16.45;14.85;;;15.00;88.00;;;;;;4946794;28;20375;-81
2023/09/05 02:54:52;;;;;;;21.38;15.25;;;15.00;87.80;;;;;;4931981;28;20077;-81
2023/09/05 02:57:18;;;;;;;16.17;14.48;;;15.00;87.80;;;;;;4931391;28;20576;-82
2023/09/05 02:59:43;;;;;;;16.10;14.32;;;15.00;87.70;;;;;;4963295;28;20054;-81
2023/09/05 03:02:09;;;;;;;17.00;15.23;;;15.00;87.50;;;;;;4963265;28;20049;-80
2023/09/05 03:04:35;;;;;;;18.73;16.27;;;15.00;87.40;;;;;;4931410;28;20042;-81
2023/09/05 03:07:01;;;;;;;17.05;15.20;;;14.90;87.30;;;;;;4963193;28;20042;-82
2023/09/05 03:09:28;;;;;;;17.48;15.75;;;14.80;87.30;;;;;;4963400;28;20042;-81
2023/09/05 03:11:54;;;;;;;17.98;16.15;;;14.80;87.30;;;;;;4963366;28;20147;-81
2023/09/05 03:14:20;;;;;;;18.63;16.63;;;14.80;87.40;;;;;;4979062;28;20042;-81
2023/09/05 03:16:46;;;;;;;19.15;16.55;;;14.70;87.40;;;;;;4962782;28;20038;-81
2023/09/05 03:19:12;;;;;;;19.85;16.15;;;14.60;87.50;;;;;;4979003;28;20046;-82
2023/09/05 03:21:38;;;;;;;17.90;16.10;;;14.50;87.60;;;;;;4963178;28;20038;-80
2023/09/05 03:24:04;;;;;;;16.48;14.88;;;14.50;87.70;;;;;;4963027;28;20418;-82
2023/09/05 03:26:30;;;;;;;18.27;16.23;;;14.50;87.80;;;;;;4978854;28;20042;-82
2023/09/05 03:28:56;;;;;;;18.70;16.65;;;14.50;87.80;;;;;;4946738;28;20042;-81
2023/09/05 03:31:27;;;;;;;18.92;16.00;;;14.50;87.70;;;;;;4962823;28;20038;-82
2023/09/05 03:33:54;;;;;;;17.30;15.57;;;14.50;87.80;;;;;;4979035;28;20506;-82
2023/09/05 03:36:20;;;;;;;17.55;15.77;;;14.40;87.90;;;;;;4978690;28;20053;-81
2023/09/05 03:38:45;;;;;;;18.02;16.15;;;14.40;88.00;;;;;;4962907;28;20034;-81
2023/09/05 03:41:11;;;;;;;17.85;16.05;;;14.40;88.00;;;;;;4946574;28;20152;-81
2023/09/05 03:43:37;;;;;;;18.35;16.55;;;14.40;88.10;;;;;;4946410;28;20137;-81
2023/09/05 03:46:02;;;;;;;18.75;16.75;;;14.40;88.00;;;;;;4946360;28;20041;-81
2023/09/05 03:48:28;;;;;;;18.17;16.33;;;14.40;88.10;;;;;;4930625;28;20042;-80
2023/09/05 03:50:54;;;;;;;17.65;15.82;;;14.40;88.10;;;;;;4946633;28;20047;-82
2023/09/05 03:53:20;;;;;;;18.63;16.70;;;14.30;88.10;;;;;;4946499;28;20034;-81
2023/09/05 03:55:47;;;;;;;18.75;16.85;;;14.40;88.20;;;;;;4962275;28;20046;-80
2023/09/05 03:58:13;;;;;;;20.15;17.08;;;14.40;88.30;;;;;;4962221;28;20601;-81
2023/09/05 04:00:39;;;;;;;19.73;17.05;;;14.40;88.30;;;;;;4978216;28;20064;-82
2023/09/05 04:03:05;;;;;;;18.58;16.77;;;14.40;88.40;;;;;;4961128;28;20061;-82
2023/09/05 04:05:33;;;;;;;18.02;16.23;;;14.30;88.50;;;;;;4961962;28;20042;-82
2023/09/05 04:07:59;;;;;;;19.80;17.70;;;14.30;88.50;;;;;;4946203;28;20043;-81
2023/09/05 04:10:25;;;;;;;19.60;17.35;;;14.30;88.50;;;;;;4962285;28;20045;-82
2023/09/05 04:12:51;;;;;;;18.17;16.27;;;14.30;88.60;;;;;;4946098;28;20042;-81
2023/09/05 04:15:21;;;;;;;18.55;16.65;;;14.20;88.50;;;;;;4977942;28;20116;-81
2023/09/05 04:17:47;;;;;;;19.10;16.63;;;14.20;88.50;;;;;;4961844;28;20077;-82
2023/09/05 04:20:13;;;;;;;20.63;16.98;;;14.20;88.60;;;;;;4961803;28;20042;-82
2023/09/05 04:22:39;;;;;;;18.77;16.65;;;14.20;88.60;;;;;;4946196;28;20046;-81
2023/09/05 04:25:06;;;;;;;19.00;17.02;;;14.20;88.50;;;;;;4961702;28;20402;-81
2023/09/05 04:27:32;;;;;;;20.10;17.95;;;14.20;88.50;;;;;;4977872;28;20038;-81
2023/09/05 04:30:00;;;;;;;19.80;17.52;;;14.10;88.40;;;;;;4977920;28;20046;-82
2023/09/05 04:32:30;;;;;;;18.75;16.83;;;14.10;88.70;;;;;;4961630;28;20046;-81
2023/09/05 04:35:01;;;;;;;19.08;17.08;;;14.10;88.40;;;;;;4961743;28;20128;-81
2023/09/05 04:37:27;;;;;;;19.17;16.85;;;14.10;88.50;;;;;;4961434;28;20050;-82
2023/09/05 04:39:56;;;;;;;19.30;17.40;;;14.10;88.70;;;;;;4977369;28;20078;-79
2023/09/05 04:42:24;;;;;;;18.38;16.48;;;14.10;88.70;;;;;;4961226;28;20042;-81
2023/09/05 04:44:51;;;;;;;18.85;16.23;;;14.10;88.80;;;;;;4961046;28;20050;-82
2023/09/05 04:47:20;;;;;;;19.15;16.77;;;14.10;88.80;;;;;;4961288;28;20038;-81
2023/09/05 04:49:51;;;;;;;17.08;15.35;;;14.10;88.70;;;;;;4977000;28;20069;-78
2023/09/05 04:52:19;;;;;;;18.15;16.15;;;14.10;89.00;;;;;;4960909;28;20112;-82
2023/09/05 04:54:45;;;;;;;17.20;15.40;;;14.10;89.30;;;;;;4961090;28;20049;-80
2023/09/05 04:57:12;;;;;;;19.58;16.05;;;14.10;89.40;;;;;;4945857;28;20042;-82
2023/09/05 04:59:39;;;;;;;19.40;17.38;;;14.10;89.20;;;;;;4961014;28;20062;-81
2023/09/05 05:02:05;;;;;;;17.80;15.95;;;14.10;89.10;;;;;;4961621;28;20115;-81
2023/09/05 05:04:31;;;;;;;18.95;16.17;;;14.10;89.20;;;;;;4929661;28;20081;-79
2023/09/05 05:06:57;;;;;;;17.58;15.55;;;14.10;89.20;;;;;;4930122;28;20097;-81
2023/09/05 05:09:23;;;;;;;20.02;16.58;;;14.10;89.20;;;;;;4946040;28;20042;-82
2023/09/05 05:11:49;;;;;;;19.75;16.42;;;14.10;89.40;;;;;;4946218;28;20038;-81
2023/09/05 05:14:15;;;;;;;18.67;16.45;;;14.20;89.70;;;;;;4945225;28;20512;-80
2023/09/05 05:16:43;;;;;;;18.95;16.92;;;14.20;89.60;;;;;;4945695;28;20049;-82
2023/09/05 05:19:12;;;;;;;17.60;15.27;;;14.20;89.50;;;;;;4962322;28;20042;-80
2023/09/05 05:21:38;;;;;;;17.05;15.23;;;14.30;89.50;;;;;;4961093;28;20054;-80
2023/09/05 05:24:08;;;;;;;18.42;15.32;;;14.20;89.40;;;;;;4945089;28;20050;-80
2023/09/05 05:26:33;;;;;;;18.45;14.93;;;14.20;89.30;;;;;;4977551;28;20442;-80
2023/09/05 05:29:00;;;;;;;18.70;15.45;;;14.20;89.30;;;;;;4961016;28;20034;-81
2023/09/05 05:31:26;;;;;;;16.90;14.07;;;14.20;89.20;;;;;;4977517;28;20042;-81
2023/09/05 05:33:52;;;;;;;15.95;13.57;;;14.20;89.30;;;;;;4961605;28;20065;-80
2023/09/05 05:36:18;;;;;;;16.13;14.25;;;14.20;89.30;;;;;;4945477;28;20446;-80
2023/09/05 05:38:44;;;;;;;15.13;13.35;;;14.20;89.30;;;;;;4961044;28;20046;-81
2023/09/05 05:41:10;;;;;;;21.50;14.95;;;14.30;89.50;;;;;;4961011;28;20070;-81
2023/09/05 05:43:36;;;;;;;14.63;12.43;;;14.30;89.70;;;;;;4976701;28;20406;-81
2023/09/05 05:46:02;;;;;;;17.50;14.43;;;14.30;89.50;;;;;;4929071;28;20042;-80
2023/09/05 05:48:28;;;;;;;18.13;16.23;;;14.40;89.70;;;;;;4961002;28;20034;-80
2023/09/05 05:50:55;;;;;;;16.65;14.90;;;14.40;89.60;;;;;;4960943;28;20038;-81
2023/09/05 05:53:23;;;;;;;16.90;15.10;;;14.40;89.50;;;;;;4976951;28;20046;-81
2023/09/05 05:55:49;;;;;;;17.58;15.60;;;14.40;89.40;;;;;;4961558;28;20038;-82
2023/09/05 05:58:15;;;;;;;18.10;15.88;;;14.50;89.70;;;;;;4960708;28;20061;-81
2023/09/05 06:00:50;;;;;;;22.15;16.75;;;14.50;89.60;;;;;;4960747;28;20608;-83
2023/09/05 06:03:20;;;;;;;16.98;15.27;;;14.50;89.40;;;;;;4945648;28;20045;-82
2023/09/05 06:05:47;;;;;;;17.77;15.90;;;14.50;89.50;;;;;;4944461;28;20038;-81
2023/09/05 06:08:13;;;;;;;17.00;15.25;;;14.60;89.50;;;;;;4976796;28;20057;-82
2023/09/05 06:10:39;;;;;;;18.35;16.20;;;14.70;89.50;;;;;;4961016;28;20053;-82
2023/09/05 06:13:05;;;;;;;18.17;16.30;;;14.80;89.50;;;;;;4960742;28;20038;-82
2023/09/05 06:15:32;;;;;;;18.30;15.90;;;14.80;89.60;;;;;;4961056;28;20069;-82
2023/09/05 06:17:59;;;;;;;17.80;16.00;;;14.90;89.60;;;;;;4961073;28;20491;-82
2023/09/05 06:20:25;;;;;;;17.90;15.68;;;15.00;89.40;;;;;;4977791;28;20038;-82
2023/09/05 06:22:51;;;;;;;19.55;15.48;;;15.00;89.40;;;;;;4945353;28;20474;-82
2023/09/05 06:25:16;;;;;;;12.75;11.43;;;15.10;89.40;;;;;;4945458;28;20042;-80
2023/09/05 06:27:43;;;;;;;14.55;13.15;;;15.10;89.60;;;;;;4964279;28;20089;-81
2023/09/05 06:30:13;;;;;;;17.13;15.40;;;15.20;89.70;;;;;;4965320;28;20390;-81
2023/09/05 06:32:42;;;;;;;16.38;14.68;;;15.30;89.60;;;;;;4980583;28;20046;-81
2023/09/05 06:35:09;;;;;;;22.33;16.58;;;15.40;89.90;;;;;;4964373;28;20043;-82
2023/09/05 06:37:36;;;;;;;16.20;14.50;;;15.50;89.70;;;;;;4980258;28;20042;-82
2023/09/05 06:40:09;;;;;;;18.02;15.20;;;15.60;89.60;;;;;;4964093;28;20494;-81
2023/09/05 06:42:39;;;;;;;18.52;14.18;;;15.70;89.70;;;;;;4980068;28;20053;-82
2023/09/05 06:45:05;;;;;;;19.38;15.10;;;15.80;90.40;;;;;;4963762;28;20051;-82
2023/09/05 06:47:31;;;;;;;17.70;14.73;;;15.90;89.80;;;;;;4948355;28;20061;-83
2023/09/05 06:49:57;;;;;;;16.63;13.60;;;16.00;89.60;;;;;;4948560;28;20406;-82
2023/09/05 06:52:22;;;;;;;13.65;10.88;;;16.10;89.40;;;;;;4980567;28;20038;-82
2023/09/05 06:54:48;;;;;;;13.57;12.18;;;16.10;89.20;;;;;;4948183;28;20101;-80
2023/09/05 06:57:16;;;;;;;14.95;13.45;;;16.20;89.10;;;;;;4948226;28;20512;-82
2023/09/05 06:59:42;;;;;;;16.42;13.10;;;16.30;89.30;;;;;;4963999;28;20141;-83
2023/09/05 07:02:08;;;;;;;13.07;11.77;;;16.40;89.10;;;;;;4948307;28;20528;-82
2023/09/05 07:04:36;;;;;;;15.73;14.02;;;16.50;89.30;;;;;;4947794;28;20042;-82
2023/09/05 07:07:06;;;;;;;13.95;11.80;;;16.70;89.60;;;;;;4933046;28;20038;-82
2023/09/05 07:09:33;;;;;;;13.52;11.27;;;16.80;89.30;;;;;;4963966;28;20112;-82
2023/09/05 07:11:59;;;;;;;12.25;9.90;;;16.90;88.80;;;;;;4947959;28;20034;-81
2023/09/05 07:14:25;;;;;;;11.93;10.73;;;17.00;88.60;;;;;;4948194;28;20042;-82
2023/09/05 07:16:50;;;;;;;16.33;11.98;;;17.10;88.40;;;;;;4947854;28;20045;-81
2023/09/05 07:19:17;;;;;;;14.75;13.23;;;17.20;88.30;;;;;;4948233;28;20445;-81
2023/09/05 07:21:46;;;;;;;14.52;13.00;;;17.30;88.00;;;;;;4980085;28;20042;-81
2023/09/05 07:24:13;;;;;;;17.13;13.10;;;17.40;87.90;;;;;;4947663;28;20053;-81
2023/09/05 07:26:43;;;;;;;12.68;11.38;;;17.50;88.00;;;;;;4931912;28;20069;-82
2023/09/05 07:29:11;;;;;;;14.63;12.38;;;17.50;87.90;;;;;;4963747;28;20050;-82
2023/09/05 07:31:40;;;;;;;13.98;11.88;;;17.70;87.70;;;;;;4963562;28;20046;-82
2023/09/05 07:34:07;;;;;;;12.43;11.23;;;17.70;87.60;;;;;;4979509;28;20380;-81
2023/09/05 07:36:34;;;;;;;12.13;10.95;;;17.80;87.60;;;;;;4962968;28;20050;-82
2023/09/05 07:39:04;;;;;;;12.85;11.55;;;17.90;87.60;;;;;;4978910;28;20517;-81
2023/09/05 07:41:31;;;;;;;14.68;10.88;;;18.00;87.50;;;;;;4962747;28;20062;-81
2023/09/05 07:43:57;;;;;;;11.73;10.57;;;18.10;87.20;;;;;;4962523;28;20540;-82
2023/09/05 07:46:23;;;;;;;11.38;9.43;;;18.20;87.20;;;;;;4962832;28;20042;-81
2023/09/05 07:48:49;;;;;;;12.95;11.02;;;18.20;87.00;;;;;;4962696;28;20034;-81
2023/09/05 07:51:15;;;;;;;16.20;10.52;;;18.40;87.00;;;;;;4946973;28;20045;-81
2023/09/05 07:53:49;;;;;;;15.02;10.30;;;18.50;86.80;;;;;;4962552;28;20565;-81
2023/09/05 07:56:15;;;;;;;9.85;8.85;;;18.60;86.70;;;;;;4979001;28;20042;-82
2023/09/05 07:58:41;;;;;;;12.55;10.07;;;18.70;86.40;;;;;;4962947;28;20088;-82
2023/09/05 08:01:09;;;;;;;10.98;9.88;;;18.80;86.10;;;;;;4946824;28;20100;-82
2023/09/05 08:03:38;;;;;;;9.00;8.00;;;18.90;86.00;;;;;;4978395;28;20042;-81
2023/09/05 08:06:04;;;;;;;14.13;10.43;;;19.00;85.80;;;;;;4978439;28;20057;-80
2023/09/05 08:08:31;;;;;;;11.27;10.18;;;19.20;85.60;;;;;;4978096;28;20479;-81
2023/09/05 08:10:57;;;;;;;11.50;9.85;;;19.30;85.50;;;;;;4978287;28;20043;-81
2023/09/05 08:13:23;;;;;;;11.52;8.65;;;19.40;85.40;;;;;;4962244;28;20045;-81
2023/09/05 08:15:50;;;;;;;11.70;9.60;;;19.50;85.20;;;;;;4978059;28;20043;-81
2023/09/05 08:18:17;;;;;;;10.48;8.98;;;19.70;84.90;;;;;;4961831;28;20125;-80
2023/09/05 08:20:43;;;;;;;9.82;8.80;;;19.80;84.60;;;;;;4977925;28;20046;-81
2023/09/05 08:23:10;;;;;;;9.60;8.70;;;19.90;84.40;;;;;;4961892;28;20049;-81
2023/09/05 08:25:36;;;;;;;9.45;8.02;;;20.00;84.20;;;;;;4977775;28;20549;-81
2023/09/05 08:28:01;;;;;;;10.30;8.95;;;20.20;83.10;;;;;;4962255;28;20042;-82
2023/09/05 08:30:28;;;;;;;9.70;8.70;;;20.40;82.90;;;;;;4945774;28;20038;-81
2023/09/05 08:33:01;;;;;;;8.68;7.75;;;20.60;82.50;;;;;;4946039;28;20129;-82
2023/09/05 08:35:28;;;;;;;8.50;7.70;;;20.70;82.30;;;;;;4961629;28;20043;-81
2023/09/05 08:37:54;;;;;;;9.98;7.55;;;20.80;82.30;;;;;;4977655;28;20043;-81
2023/09/05 08:40:22;;;;;;;9.57;6.93;;;20.90;82.10;;;;;;4962072;28;20038;-81
2023/09/05 08:42:50;;;;;;;9.10;7.15;;;21.10;81.80;;;;;;4976782;28;20078;-80
2023/09/05 08:45:21;;;;;;;7.85;6.97;;;21.20;81.10;;;;;;4976244;28;20132;-82
2023/09/05 08:47:46;;;;;;;8.77;7.03;;;21.40;81.10;;;;;;4960587;28;20034;-80
2023/09/05 08:50:13;;;;;;;7.70;6.35;;;21.50;80.90;;;;;;4960899;28;20398;-83
2023/09/05 08:52:41;;;;;;;7.53;6.53;;;21.60;79.30;;;;;;4945662;28;20497;-83
2023/09/05 08:55:09;;;;;;;7.28;6.38;;;21.80;79.40;;;;;;4961156;28;20042;-83
2023/09/05 08:57:38;;;;;;;9.57;7.50;;;21.90;79.30;;;;;;4961572;28;20100;-81
2023/09/05 09:00:06;;;;;;;7.45;6.75;;;22.10;78.70;;;;;;4961128;28;20054;-81
2023/09/05 09:02:34;;;;;;;7.05;6.35;;;22.20;78.90;;;;;;4945668;28;20042;-81
2023/09/05 09:05:00;;;;;;;7.43;6.13;;;22.30;78.50;;;;;;4945567;28;20491;-81
2023/09/05 09:07:27;;;;;;;8.20;5.50;;;22.40;78.20;;;;;;4960996;28;20042;-81
2023/09/05 09:09:54;;;;;;;8.75;4.95;;;22.50;78.20;;;;;;4961339;28;20046;-82
2023/09/05 09:12:49;;;;;;;6.43;4.88;;;22.70;78.10;;;;;;4977582;28;20074;-81
2023/09/05 09:15:15;;;;;;;7.05;5.13;;;22.70;77.30;;;;;;4974838;28;20057;-80
2023/09/05 09:17:42;;;;;;;8.27;4.75;;;22.90;77.00;;;;;;4961478;28;20042;-80
2023/09/05 09:20:12;;;;;;;6.35;5.10;;;23.00;76.90;;;;;;4960998;28;20050;-82
2023/09/05 09:22:42;;;;;;;6.95;5.40;;;23.10;77.00;;;;;;4961132;28;20042;-81
2023/09/05 09:25:20;;;;;;;7.07;5.72;;;23.30;76.70;;;;;;4960777;28;20498;-81
2023/09/05 09:27:54;;;;;;;5.40;4.85;;;23.50;76.50;;;;;;4977502;28;20046;-80
2023/09/05 09:30:24;;;;;;;8.90;5.28;;;23.70;76.30;;;;;;4977200;28;20042;-82
2023/09/05 09:32:54;;;;;;;5.90;4.47;;;23.80;76.00;;;;;;4960841;28;20395;-82
2023/09/05 09:35:21;;;;;;;7.90;4.75;;;23.90;76.10;;;;;;4961101;28;20404;-81
2023/09/05 09:37:49;;;;;;;6.97;4.45;;;24.20;75.10;;;;;;4976822;28;20054;-81
2023/09/05 09:40:16;;;;;;;3.53;2.63;;;24.30;74.70;;;;;;4976825;28;20078;-80
2023/09/05 09:42:46;;;;;;;4.43;3.00;;;24.50;73.60;;;;;;4960694;28;20047;-81
2023/09/05 09:45:12;;;;;;;5.00;2.90;;;24.70;71.60;;;;;;4959110;28;20661;-81
2023/09/05 09:47:48;;;;;;;3.88;2.63;;;24.80;71.10;;;;;;4976693;28;20482;-81
2023/09/05 09:50:16;;;;;;;4.50;2.83;;;25.00;69.10;;;;;;4971987;28;20379;-81
2023/09/05 09:52:44;;;;;;;3.72;2.50;;;25.20;69.10;;;;;;4976615;28;20122;-81
2023/09/05 09:55:13;;;;;;;5.75;3.05;;;25.30;68.50;;;;;;4960478;28;20404;-80
2023/09/05 09:58:08;;;;;;;6.07;3.13;;;25.40;68.40;;;;;;4960436;28;20181;-79
2023/09/05 10:00:35;;;;;;;4.47;3.05;;;25.50;67.00;;;;;;4975517;28;20113;-79
2023/09/05 10:03:04;;;;;;;6.03;3.10;;;25.70;68.10;;;;;;4976604;28;20434;-81
2023/09/05 10:05:32;;;;;;;4.80;3.30;;;25.80;68.00;;;;;;4976341;28;20042;-80
2023/09/05 10:07:58;;;;;;;5.47;4.10;;;25.90;68.00;;;;;;4976514;28;20042;-81
2023/09/05 10:10:25;;;;;;;4.97;3.25;;;26.10;67.70;;;;;;4976586;28;20042;-80
2023/09/05 10:12:54;;;;;;;4.35;3.20;;;26.20;67.10;;;;;;4976354;28;20039;-82
2023/09/05 10:15:21;;;;;;;4.18;3.17;;;26.30;66.60;;;;;;4944619;28;20434;-80
2023/09/05 10:17:49;;;;;;;4.47;3.10;;;26.40;66.50;;;;;;4944368;28;20038;-81
2023/09/05 10:20:19;;;;;;;2.88;2.47;;;26.50;66.10;;;;;;4977164;28;20058;-82
2023/09/05 10:22:44;;;;;;;3.85;3.28;;;26.60;65.70;;;;;;4976794;28;20129;-81
2023/09/05 10:25:15;;;;;;;4.75;2.85;;;26.70;63.50;;;;;;4960494;28;20122;-81
2023/09/05 10:27:40;;;;;;;4.72;2.85;;;26.90;63.80;;;;;;4960379;28;20042;-80
2023/09/05 10:30:12;;;;;;;3.97;2.83;;;27.00;63.30;;;;;;4960934;28;20042;-80
2023/09/05 10:32:44;;;;;;;3.45;2.80;;;27.10;62.90;;;;;;4946465;28;20038;-81
2023/09/05 10:35:17;;;;;;;4.90;2.88;;;27.20;62.50;;;;;;4959187;28;20046;-81
2023/09/05 10:37:48;;;;;;;4.10;2.65;;;27.30;61.60;;;;;;4977280;28;20577;-81
2023/09/05 10:40:14;;;;;;;3.90;2.47;;;27.40;61.40;;;;;;4960320;28;20046;-80
2023/09/05 10:42:54;;;;;;;4.70;2.60;;;27.40;60.40;;;;;;4978337;28;20029;-81
2023/09/05 10:45:29;;;;;;;3.17;2.40;;;27.60;59.20;;;;;;5000551;28;20034;-80
2023/09/05 10:48:11;;;;;;;5.95;2.95;;;27.70;61.10;;;;;;4985182;28;20065;-80
2023/09/05 10:51:22;;;;;;;4.15;2.53;;;27.80;59.40;;;;;;4967377;28;20030;-81
2023/09/05 10:53:48;;;;;;;2.83;2.47;;;27.90;59.40;;;;;;4937680;28;20051;-80
2023/09/05 10:56:38;;;;;;;3.38;2.40;;;28.00;59.50;;;;;;4941721;28;20043;-80
2023/09/05 10:59:07;;;;;;;4.32;2.58;;;28.10;55.90;;;;;;4941004;28;20042;-80
2023/09/05 11:01:33;;;;;;;5.90;2.60;;;28.20;58.90;;;;;;4941792;28;20082;-80
2023/09/05 11:04:08;;;;;;;2.95;2.42;;;28.30;59.20;;;;;;4957093;28;20077;-80
2023/09/05 11:06:34;;;;;;;6.28;3.03;;;28.50;59.10;;;;;;4941581;28;20054;-80
2023/09/05 11:09:04;;;;;;;3.38;2.17;;;28.50;58.40;;;;;;4940896;28;20082;-80
2023/09/05 11:11:31;;;;;;;3.15;2.42;;;28.60;57.50;;;;;;4956994;28;20344;-81
2023/09/05 11:13:57;;;;;;;4.60;2.30;;;28.80;58.30;;;;;;4944791;28;20043;-80
2023/09/05 11:16:24;;;;;;;3.75;2.20;;;28.90;56.70;;;;;;4944335;28;20097;-80
2023/09/05 11:18:56;;;;;;;3.30;1.80;;;29.00;55.60;;;;;;4960127;28;20042;-80
2023/09/05 11:21:23;;;;;;;3.53;1.95;;;29.20;56.30;;;;;;4979588;28;20081;-79
2023/09/05 11:23:51;;;;;;;3.53;2.38;;;29.30;56.00;;;;;;4944320;28;20118;-81
2023/09/05 11:26:17;;;;;;;3.70;1.75;;;29.40;54.70;;;;;;4959887;28;20043;-80
2023/09/05 11:28:43;;;;;;;3.83;2.30;;;29.50;55.10;;;;;;4944346;28;20043;-80
2023/09/05 11:31:11;;;;;;;3.10;2.08;;;29.70;54.50;;;;;;4927988;28;20043;-80
2023/09/05 11:33:37;;;;;;;3.10;1.70;;;29.90;53.90;;;;;;4959791;28;20042;-80
2023/09/05 11:36:07;;;;;;;2.50;1.98;;;29.90;52.60;;;;;;4959772;28;20054;-80
2023/09/05 11:38:47;;;;;;;3.35;2.08;;;29.90;52.40;;;;;;4943617;28;20042;-80
2023/09/05 11:41:13;;;;;;;3.92;2.15;;;30.10;51.50;;;;;;4959220;28;20398;-79
2023/09/05 11:43:54;;;;;;;2.63;1.80;;;30.30;52.40;;;;;;4958959;28;20046;-79
2023/09/05 11:46:20;;;;;;;4.43;2.40;;;30.30;51.30;;;;;;4941861;28;20030;-79
2023/09/05 11:48:49;;;;;;;5.07;2.47;;;30.50;50.60;;;;;;4927484;28;20043;-78
2023/09/05 11:51:16;;;;;;;4.38;2.30;;;30.50;50.40;;;;;;4959531;28;20043;-79
2023/09/05 11:53:43;;;;;;;2.45;1.70;;;30.50;50.30;;;;;;4927872;28;20391;-80
2023/09/05 11:56:10;;;;;;;2.65;2.08;;;30.70;49.90;;;;;;4943441;28;20387;-81
2023/09/05 11:58:36;;;;;;;3.08;2.00;;;30.90;50.60;;;;;;4959568;28;20097;-80
2023/09/05 12:01:02;;;;;;;2.72;1.80;;;31.00;49.90;;;;;;4943373;28;20113;-79
2023/09/05 12:03:29;;;;;;;3.17;2.00;;;31.20;49.30;;;;;;4959214;28;20046;-80
2023/09/05 12:05:55;;;;;;;3.00;1.95;;;31.30;49.40;;;;;;4943188;28;20561;-81
2023/09/05 12:08:21;;;;;;;2.00;1.50;;;31.50;49.30;;;;;;4959208;28;20050;-79
2023/09/05 12:10:51;;;;;;;4.38;1.77;;;31.50;47.80;;;;;;4958889;28;20034;-81
2023/09/05 12:13:18;;;;;;;5.00;2.30;;;31.30;47.10;;;;;;4943363;28;20074;-81
2023/09/05 12:15:45;;;;;;;3.58;1.90;;;31.40;47.10;;;;;;4942682;28;20043;-81
2023/09/05 12:18:19;;;;;;;2.50;1.60;;;31.60;46.70;;;;;;4927021;28;20049;-80
2023/09/05 12:20:56;;;;;;;3.15;1.80;;;31.50;45.90;;;;;;4959050;28;20407;-81
2023/09/05 12:23:27;;;;;;;3.03;2.00;;;31.60;45.30;;;;;;4957932;28;20521;-81
2023/09/05 12:25:53;;;;;;;5.75;2.28;;;31.70;45.00;;;;;;4942878;28;20508;-81
2023/09/05 12:28:22;;;;;;;3.85;2.20;;;31.80;46.60;;;;;;4958774;28;20391;-80
2023/09/05 12:31:04;;;;;;;2.72;2.10;;;31.90;47.70;;;;;;4926804;28;20117;-81
2023/09/05 12:33:30;;;;;;;2.38;2.10;;;32.10;47.70;;;;;;4944273;28;20043;-81
2023/09/05 12:35:56;;;;;;;2.72;1.70;;;32.10;46.50;;;;;;4958543;28;20039;-81